• Join FlightAware (Why Join?)
  • Login
  • US Flag 
06:56AM EST


 

Airport Tracker/Info


-or-


 

Live Flight TrackerFlight Track Log ✈ N777NC ✈ 08-Jul-2013 ✈ KLIT - KATL

Flight Track Log - Related Links

Times and Time Zones

All times are in EDT time to prevent confusion due to time zone crossing. See the N777NC flight status page for this flight to view local times or setup timezone preferences in your user account.

Time Position Orientation Groundspeed Altitude Reporting Facility
EDT Latitude Longitude Course Direction KTS MPH feet Rate Location/Type
02:28PM 34.7133 -92.2519 79° East 171 197 1,000  Level Memphis Center
02:29PM 34.6756 -92.2664 197° South 211 243 2,200 1,560 Climbing Memphis Center
02:30PM 34.6664 -92.1978 99° East 246 283 3,900 1,680 Climbing Memphis Center
02:31PM 34.7345 -91.7596 78° East  Level FlightAware Approximate
02:31PM 34.6925 -92.1100 70° East 288 331 5,600  Level Memphis Center
02:32PM 34.7551 -91.6366 78° East  Level FlightAware Approximate
02:32PM 34.7044 -92.0142 81° East 307 353 7,900  Level Memphis Center
02:33PM 34.7755 -91.5135 79° East  Level FlightAware Approximate
02:33PM 34.7200 -91.9211 78° East 296 341 10,200  Level Memphis Center
02:34PM 34.7361 -91.8128 80° East 296 341 11,800 1,440 Climbing Memphis Center
02:35PM 34.7519 -91.6842 81° East 331 381 13,100 1,260 Climbing Memphis Center
02:36PM 34.7656 -91.5781 81° East 348 400 14,400 1,560 Climbing Memphis Center
02:37PM 34.7461 -91.4514 101° East 362 417 16,300 1,620 Climbing Memphis Center
02:38PM 34.7219 -91.3275 103° East 375 432 17,700 1,380 Climbing Memphis Center
02:39PM 34.6958 -91.1931 103° East 391 450 19,100 1,320 Climbing Memphis Center
02:40PM 34.6944 -91.0594 91° East 404 465 20,400 1,440 Climbing Memphis Center
02:41PM 34.7472 -90.9383 62° Northeast 398 458 22,000 1,320 Climbing Memphis Center
02:42PM 34.8019 -90.8122 62° Northeast 405 466 23,100 1,140 Climbing Memphis Center
02:43PM 34.8400 -90.6633 73° East 411 473 24,300 1,140 Climbing Memphis Center
02:44PM 34.8800 -90.5267 70° East 419 482 25,400 960 Climbing Memphis Center
02:45PM 34.9133 -90.3850 74° East 433 498 26,300 900 Climbing Memphis Center
02:47PM 34.9883 -90.0986 72° East 439 505 28,200 780 Climbing Memphis Center
02:48PM 35.0233 -89.9489 74° East 444 511 28,800 360 Climbing Memphis Center
02:49PM 35.0103 -89.8094 96° East 444 511 29,000 60 Climbing Memphis Center
02:50PM 34.9803 -89.6475 103° East 470 541 29,000  Level Memphis Center
02:51PM 34.9394 -89.4856 107° East 464 534 29,000  Level Memphis Center
02:52PM 34.9050 -89.3317 105° East 464 534 29,000  Level Memphis Center
02:53PM 34.8703 -89.1853 106° East 458 527 29,000  Level Memphis Center
02:54PM 34.8439 -89.0364 102° East 458 527 29,000  Level Memphis Center
02:55PM 34.8233 -88.8847 99° East 452 520 29,000  Level Memphis Center
02:56PM 34.8006 -88.7308 100° East 452 520 29,000  Level Memphis Center
02:57PM 34.7858 -88.5769 97° East 452 520 29,000  Level Memphis Center
02:58PM 34.7692 -88.4281 98° East 452 520 29,000  Level Memphis Center
02:59PM 34.7539 -88.2717 97° East 447 514 29,000  Level Memphis Center
03:00PM 34.7411 -88.1256 96° East 468 539 29,000  Level Memphis Center
03:01PM 34.7256 -87.9717 97° East 473 544 29,000  Level Memphis Center
03:02PM 34.7142 -87.8181 95° East 467 537 29,000  Level Memphis Center
03:03PM 34.6983 -87.6619 97° East 462 532 29,000  Level Memphis Center
03:04PM 34.6825 -87.5108 97° East 455 524 29,000  Level Memphis Center
03:05PM 34.6686 -87.3572 96° East 446 513 29,000  Level Memphis Center
03:07PM 34.5969 -87.0317 105° East 467 537 29,000  Level Atlanta Center
03:08PM 34.5608 -86.8839 106° East 468 539 29,000 -1,380 Level Atlanta Center
03:09PM 34.5203 -86.7339 108° East 468 539 26,300 -2,340 Descending Atlanta Center
03:10PM 34.4861 -86.5792 105° East 468 539 24,400 -1,200 Descending Atlanta Center
03:11PM 34.4494 -86.4319 107° East 463 533 24,000 -240 Descending Atlanta Center
03:12PM 34.4061 -86.2844 110° East 463 533 24,000  Level Atlanta Center
03:13PM 34.3669 -86.1400 108° East 463 533 24,000  Level Atlanta Center
03:14PM 34.3275 -85.9958 108° East 458 527 24,000  Level Atlanta Center
03:15PM 34.2881 -85.8492 108° East 458 527 24,000 -240 Level Atlanta Center
03:16PM 34.2608 -85.7053 103° East 444 511 23,600 -1,680 Descending Atlanta Center
03:17PM 34.2525 -85.5567 94° East 438 504 20,700 -2,400 Descending Atlanta Center
03:18PM 34.2228 -85.4081 104° East 432 497 18,900 -1,020 Descending Atlanta Center
03:19PM 34.1908 -85.2744 106° East 414 476 18,700 -1,320 Descending Atlanta Center
03:20PM 34.1608 -85.1408 105° East 409 471 16,300 -2,100 Descending Atlanta Center
03:21PM 34.1242 -85.0225 110° East 395 455 14,600 -1,440 Descending Atlanta Center
03:22PM 34.0456 -84.9289 135° Southeast 382 440 13,500 -1,500 Descending Atlanta Center
03:23PM 33.9647 -84.8503 141° Southeast 371 427 11,700 -1,200 Descending Atlanta Center
03:24PM 33.8839 -84.7719 141° Southeast 376 433 11,100 -540 Descending Atlanta Center
03:24PM 33.8500 -84.7333 137° Southeast 370 426 10,900 -120 Descending Atlanta TRACON
03:25PM 33.7667 -84.6333 135° Southeast 375 432 11,000  Climbing Atlanta TRACON
03:26PM 33.7333 -84.5333 112° Southeast 319 367 11,000 -360 Level Atlanta TRACON
03:27PM 33.7500 -84.4500 76° East 268 308 10,300 -1,200 Descending Atlanta TRACON
03:28PM 33.7500 -84.3667 90° East 266 306 8,600 -1,800 Descending Atlanta TRACON
03:29PM 33.7500 -84.2833 90° East 237 273 6,800 -1,920 Descending Atlanta TRACON
03:30PM 33.7500 -84.2000 90° East 238 274 4,800 -1,440 Descending Atlanta TRACON
03:31PM 33.7167 -84.1500 129° Southeast 208 239 4,000 -540 Descending Atlanta TRACON
03:32PM 33.6667 -84.1667 196° South 188 216 3,800 -240 Descending Atlanta TRACON